sensor_id;sensor_type;location;lat;lon;timestamp;P1;durP1;ratioP1;P2;durP2;ratioP2
63089;SDS011;49174;43.198;27.824;2023-05-23T00:01:45;6.88;;;2.33;;
63089;SDS011;49174;43.198;27.824;2023-05-23T00:04:12;6.03;;;2.15;;
63089;SDS011;49174;43.198;27.824;2023-05-23T00:06:44;3.67;;;2.08;;
63089;SDS011;49174;43.198;27.824;2023-05-23T00:09:12;3.30;;;2.30;;
63089;SDS011;49174;43.198;27.824;2023-05-23T00:11:41;3.13;;;2.03;;
63089;SDS011;49174;43.198;27.824;2023-05-23T00:14:13;4.65;;;2.58;;
63089;SDS011;49174;43.198;27.824;2023-05-23T00:16:40;6.70;;;2.60;;
63089;SDS011;49174;43.198;27.824;2023-05-23T00:19:07;3.28;;;2.10;;
63089;SDS011;49174;43.198;27.824;2023-05-23T00:21:33;5.07;;;2.17;;
63089;SDS011;49174;43.198;27.824;2023-05-23T00:23:58;3.85;;;2.42;;
63089;SDS011;49174;43.198;27.824;2023-05-23T00:26:24;2.92;;;1.90;;
63089;SDS011;49174;43.198;27.824;2023-05-23T00:28:49;6.55;;;2.17;;
63089;SDS011;49174;43.198;27.824;2023-05-23T00:31:15;6.15;;;2.17;;
63089;SDS011;49174;43.198;27.824;2023-05-23T00:33:41;10.52;;;2.58;;
63089;SDS011;49174;43.198;27.824;2023-05-23T00:36:07;5.13;;;2.28;;
63089;SDS011;49174;43.198;27.824;2023-05-23T00:38:33;4.22;;;2.38;;
63089;SDS011;49174;43.198;27.824;2023-05-23T00:40:58;3.65;;;2.17;;
63089;SDS011;49174;43.198;27.824;2023-05-23T00:43:25;4.32;;;1.80;;
63089;SDS011;49174;43.198;27.824;2023-05-23T00:45:51;6.07;;;3.08;;
63089;SDS011;49174;43.198;27.824;2023-05-23T00:48:17;4.45;;;2.28;;
63089;SDS011;49174;43.198;27.824;2023-05-23T00:50:42;4.32;;;2.63;;
63089;SDS011;49174;43.198;27.824;2023-05-23T00:53:08;5.57;;;2.47;;
63089;SDS011;49174;43.198;27.824;2023-05-23T00:55:34;8.00;;;2.55;;
63089;SDS011;49174;43.198;27.824;2023-05-23T00:57:59;3.25;;;2.33;;
63089;SDS011;49174;43.198;27.824;2023-05-23T01:00:25;6.75;;;2.75;;
63089;SDS011;49174;43.198;27.824;2023-05-23T01:02:51;3.58;;;2.40;;
63089;SDS011;49174;43.198;27.824;2023-05-23T01:05:17;3.58;;;2.15;;
63089;SDS011;49174;43.198;27.824;2023-05-23T01:10:13;3.28;;;2.20;;
63089;SDS011;49174;43.198;27.824;2023-05-23T01:15:22;7.28;;;2.42;;
63089;SDS011;49174;43.198;27.824;2023-05-23T01:20:39;6.22;;;2.38;;
63089;SDS011;49174;43.198;27.824;2023-05-23T01:23:12;4.82;;;2.72;;
63089;SDS011;49174;43.198;27.824;2023-05-23T01:26:01;3.53;;;2.33;;
63089;SDS011;49174;43.198;27.824;2023-05-23T01:28:35;5.43;;;3.03;;
63089;SDS011;49174;43.198;27.824;2023-05-23T01:31:05;4.32;;;2.55;;
63089;SDS011;49174;43.198;27.824;2023-05-23T01:33:34;4.97;;;2.25;;
63089;SDS011;49174;43.198;27.824;2023-05-23T01:36:02;5.57;;;2.58;;
63089;SDS011;49174;43.198;27.824;2023-05-23T01:38:28;5.80;;;2.65;;
63089;SDS011;49174;43.198;27.824;2023-05-23T01:40:53;6.50;;;3.67;;
63089;SDS011;49174;43.198;27.824;2023-05-23T01:43:19;5.32;;;2.50;;
63089;SDS011;49174;43.198;27.824;2023-05-23T01:45:47;3.85;;;2.80;;
63089;SDS011;49174;43.198;27.824;2023-05-23T01:48:14;3.53;;;2.40;;
63089;SDS011;49174;43.198;27.824;2023-05-23T01:50:41;5.32;;;2.53;;
63089;SDS011;49174;43.198;27.824;2023-05-23T01:53:11;6.80;;;2.80;;
63089;SDS011;49174;43.198;27.824;2023-05-23T01:55:38;4.22;;;2.67;;
63089;SDS011;49174;43.198;27.824;2023-05-23T01:58:05;4.65;;;2.47;;
63089;SDS011;49174;43.198;27.824;2023-05-23T02:00:32;6.03;;;2.28;;
63089;SDS011;49174;43.198;27.824;2023-05-23T02:02:57;6.03;;;2.53;;
63089;SDS011;49174;43.198;27.824;2023-05-23T02:05:23;6.75;;;2.65;;
63089;SDS011;49174;43.198;27.824;2023-05-23T02:07:49;8.43;;;2.63;;
63089;SDS011;49174;43.198;27.824;2023-05-23T02:10:15;4.45;;;2.53;;
63089;SDS011;49174;43.198;27.824;2023-05-23T02:12:41;3.60;;;2.50;;
63089;SDS011;49174;43.198;27.824;2023-05-23T02:15:06;5.30;;;2.67;;
63089;SDS011;49174;43.198;27.824;2023-05-23T02:17:32;5.90;;;2.80;;
63089;SDS011;49174;43.198;27.824;2023-05-23T02:19:58;4.85;;;2.30;;
63089;SDS011;49174;43.198;27.824;2023-05-23T02:22:23;4.30;;;2.70;;
63089;SDS011;49174;43.198;27.824;2023-05-23T02:24:52;4.03;;;2.35;;
63089;SDS011;49174;43.198;27.824;2023-05-23T02:27:18;4.65;;;2.90;;
63089;SDS011;49174;43.198;27.824;2023-05-23T02:29:43;5.35;;;3.05;;
63089;SDS011;49174;43.198;27.824;2023-05-23T02:32:09;6.68;;;2.35;;
63089;SDS011;49174;43.198;27.824;2023-05-23T02:34:34;6.07;;;2.80;;
63089;SDS011;49174;43.198;27.824;2023-05-23T02:37:00;6.47;;;2.40;;
63089;SDS011;49174;43.198;27.824;2023-05-23T02:39:26;4.80;;;2.50;;
63089;SDS011;49174;43.198;27.824;2023-05-23T02:41:51;5.40;;;3.10;;
63089;SDS011;49174;43.198;27.824;2023-05-23T02:44:17;5.85;;;2.90;;
63089;SDS011;49174;43.198;27.824;2023-05-23T02:46:44;5.60;;;2.35;;
63089;SDS011;49174;43.198;27.824;2023-05-23T02:49:10;5.93;;;2.90;;
63089;SDS011;49174;43.198;27.824;2023-05-23T02:51:35;5.53;;;2.92;;
63089;SDS011;49174;43.198;27.824;2023-05-23T02:54:01;4.40;;;2.75;;
63089;SDS011;49174;43.198;27.824;2023-05-23T02:56:26;4.78;;;2.78;;
63089;SDS011;49174;43.198;27.824;2023-05-23T02:58:52;4.88;;;2.72;;
63089;SDS011;49174;43.198;27.824;2023-05-23T03:01:18;5.05;;;2.75;;
63089;SDS011;49174;43.198;27.824;2023-05-23T03:03:44;7.40;;;2.95;;
63089;SDS011;49174;43.198;27.824;2023-05-23T03:06:09;6.07;;;2.65;;
63089;SDS011;49174;43.198;27.824;2023-05-23T03:08:39;4.55;;;3.03;;
63089;SDS011;49174;43.198;27.824;2023-05-23T03:11:04;8.45;;;2.70;;
63089;SDS011;49174;43.198;27.824;2023-05-23T03:13:30;4.75;;;2.38;;
63089;SDS011;49174;43.198;27.824;2023-05-23T03:15:56;6.30;;;3.38;;
63089;SDS011;49174;43.198;27.824;2023-05-23T03:18:21;8.63;;;2.95;;
63089;SDS011;49174;43.198;27.824;2023-05-23T03:20:46;5.40;;;2.50;;
63089;SDS011;49174;43.198;27.824;2023-05-23T03:23:12;7.53;;;3.30;;
63089;SDS011;49174;43.198;27.824;2023-05-23T03:25:37;5.78;;;2.80;;
63089;SDS011;49174;43.198;27.824;2023-05-23T03:28:03;4.22;;;2.40;;
63089;SDS011;49174;43.198;27.824;2023-05-23T03:30:29;13.98;;;3.70;;
63089;SDS011;49174;43.198;27.824;2023-05-23T03:32:55;5.72;;;2.53;;
63089;SDS011;49174;43.198;27.824;2023-05-23T03:35:20;5.78;;;2.45;;
63089;SDS011;49174;43.198;27.824;2023-05-23T03:37:46;5.85;;;3.15;;
63089;SDS011;49174;43.198;27.824;2023-05-23T03:40:11;4.53;;;3.47;;
63089;SDS011;49174;43.198;27.824;2023-05-23T03:42:37;4.28;;;2.70;;
63089;SDS011;49174;43.198;27.824;2023-05-23T03:45:03;4.57;;;2.88;;
63089;SDS011;49174;43.198;27.824;2023-05-23T03:47:29;4.10;;;2.92;;
63089;SDS011;49174;43.198;27.824;2023-05-23T03:49:55;5.95;;;3.20;;
63089;SDS011;49174;43.198;27.824;2023-05-23T03:52:21;10.43;;;2.97;;
63089;SDS011;49174;43.198;27.824;2023-05-23T03:54:47;5.90;;;3.20;;
63089;SDS011;49174;43.198;27.824;2023-05-23T03:57:12;4.82;;;3.20;;
63089;SDS011;49174;43.198;27.824;2023-05-23T03:59:38;5.07;;;2.70;;
63089;SDS011;49174;43.198;27.824;2023-05-23T04:02:03;5.38;;;3.17;;
63089;SDS011;49174;43.198;27.824;2023-05-23T04:04:30;5.38;;;2.72;;
63089;SDS011;49174;43.198;27.824;2023-05-23T04:06:56;4.15;;;2.40;;
63089;SDS011;49174;43.198;27.824;2023-05-23T04:09:23;4.80;;;2.45;;
63089;SDS011;49174;43.198;27.824;2023-05-23T04:11:50;4.78;;;2.92;;
63089;SDS011;49174;43.198;27.824;2023-05-23T04:14:15;6.07;;;2.72;;
63089;SDS011;49174;43.198;27.824;2023-05-23T04:16:41;5.10;;;2.88;;
63089;SDS011;49174;43.198;27.824;2023-05-23T04:19:08;4.07;;;2.55;;
63089;SDS011;49174;43.198;27.824;2023-05-23T04:21:34;6.07;;;2.63;;
63089;SDS011;49174;43.198;27.824;2023-05-23T04:24:00;4.40;;;2.50;;
63089;SDS011;49174;43.198;27.824;2023-05-23T04:26:26;4.22;;;2.83;;
63089;SDS011;49174;43.198;27.824;2023-05-23T04:28:55;5.95;;;2.80;;
63089;SDS011;49174;43.198;27.824;2023-05-23T04:31:20;3.95;;;2.80;;
63089;SDS011;49174;43.198;27.824;2023-05-23T04:33:46;4.22;;;2.92;;
63089;SDS011;49174;43.198;27.824;2023-05-23T04:36:13;4.43;;;2.55;;
63089;SDS011;49174;43.198;27.824;2023-05-23T04:38:38;4.35;;;2.95;;
63089;SDS011;49174;43.198;27.824;2023-05-23T04:41:05;5.38;;;2.38;;
63089;SDS011;49174;43.198;27.824;2023-05-23T04:43:31;6.68;;;2.72;;
63089;SDS011;49174;43.198;27.824;2023-05-23T04:45:58;6.15;;;2.60;;
63089;SDS011;49174;43.198;27.824;2023-05-23T04:48:24;4.72;;;2.80;;
63089;SDS011;49174;43.198;27.824;2023-05-23T04:50:51;4.40;;;2.42;;
63089;SDS011;49174;43.198;27.824;2023-05-23T04:53:20;5.90;;;2.85;;
63089;SDS011;49174;43.198;27.824;2023-05-23T04:55:48;7.47;;;2.60;;
63089;SDS011;49174;43.198;27.824;2023-05-23T04:58:14;3.72;;;2.47;;
63089;SDS011;49174;43.198;27.824;2023-05-23T05:00:39;5.63;;;2.85;;
63089;SDS011;49174;43.198;27.824;2023-05-23T05:03:05;4.45;;;2.17;;
63089;SDS011;49174;43.198;27.824;2023-05-23T05:05:30;5.15;;;2.83;;
63089;SDS011;49174;43.198;27.824;2023-05-23T05:07:56;8.60;;;3.17;;
63089;SDS011;49174;43.198;27.824;2023-05-23T05:10:21;4.10;;;2.65;;
63089;SDS011;49174;43.198;27.824;2023-05-23T05:12:47;3.35;;;2.55;;
63089;SDS011;49174;43.198;27.824;2023-05-23T05:15:15;8.95;;;3.40;;
63089;SDS011;49174;43.198;27.824;2023-05-23T05:17:42;3.90;;;2.65;;
63089;SDS011;49174;43.198;27.824;2023-05-23T05:20:08;3.88;;;3.03;;
63089;SDS011;49174;43.198;27.824;2023-05-23T05:22:37;9.13;;;3.13;;
63089;SDS011;49174;43.198;27.824;2023-05-23T05:25:07;3.72;;;2.55;;
63089;SDS011;49174;43.198;27.824;2023-05-23T05:27:33;5.95;;;3.00;;
63089;SDS011;49174;43.198;27.824;2023-05-23T05:30:05;3.90;;;2.42;;
63089;SDS011;49174;43.198;27.824;2023-05-23T05:32:31;10.05;;;2.97;;
63089;SDS011;49174;43.198;27.824;2023-05-23T05:35:01;5.18;;;3.40;;
63089;SDS011;49174;43.198;27.824;2023-05-23T05:37:27;5.97;;;2.97;;
63089;SDS011;49174;43.198;27.824;2023-05-23T05:39:53;6.07;;;2.70;;
63089;SDS011;49174;43.198;27.824;2023-05-23T05:42:20;5.03;;;2.92;;
63089;SDS011;49174;43.198;27.824;2023-05-23T05:44:48;5.93;;;2.70;;
63089;SDS011;49174;43.198;27.824;2023-05-23T05:47:14;4.85;;;3.00;;
63089;SDS011;49174;43.198;27.824;2023-05-23T05:49:40;5.35;;;3.58;;
63089;SDS011;49174;43.198;27.824;2023-05-23T05:52:06;5.80;;;2.60;;
63089;SDS011;49174;43.198;27.824;2023-05-23T05:54:32;5.15;;;3.25;;
63089;SDS011;49174;43.198;27.824;2023-05-23T05:56:58;5.85;;;3.33;;
63089;SDS011;49174;43.198;27.824;2023-05-23T05:59:23;7.18;;;3.10;;
63089;SDS011;49174;43.198;27.824;2023-05-23T06:01:48;4.22;;;2.45;;
63089;SDS011;49174;43.198;27.824;2023-05-23T06:04:17;4.40;;;3.03;;
63089;SDS011;49174;43.198;27.824;2023-05-23T06:06:43;9.48;;;3.17;;
63089;SDS011;49174;43.198;27.824;2023-05-23T06:09:08;5.45;;;3.47;;
63089;SDS011;49174;43.198;27.824;2023-05-23T06:11:35;5.88;;;3.03;;
63089;SDS011;49174;43.198;27.824;2023-05-23T06:14:04;7.95;;;3.08;;
63089;SDS011;49174;43.198;27.824;2023-05-23T06:16:33;4.97;;;3.28;;
63089;SDS011;49174;43.198;27.824;2023-05-23T06:18:59;7.93;;;2.78;;
63089;SDS011;49174;43.198;27.824;2023-05-23T06:21:25;5.00;;;2.80;;
63089;SDS011;49174;43.198;27.824;2023-05-23T06:23:51;4.70;;;2.67;;
63089;SDS011;49174;43.198;27.824;2023-05-23T06:26:17;5.45;;;3.25;;
63089;SDS011;49174;43.198;27.824;2023-05-23T06:28:42;6.38;;;2.92;;
63089;SDS011;49174;43.198;27.824;2023-05-23T06:31:08;8.73;;;2.90;;
63089;SDS011;49174;43.198;27.824;2023-05-23T06:33:36;4.20;;;2.53;;
63089;SDS011;49174;43.198;27.824;2023-05-23T06:36:01;5.07;;;2.72;;
63089;SDS011;49174;43.198;27.824;2023-05-23T06:38:28;3.88;;;2.47;;
63089;SDS011;49174;43.198;27.824;2023-05-23T06:40:58;7.22;;;2.55;;
63089;SDS011;49174;43.198;27.824;2023-05-23T06:43:25;4.93;;;2.92;;
63089;SDS011;49174;43.198;27.824;2023-05-23T06:45:50;4.53;;;2.58;;
63089;SDS011;49174;43.198;27.824;2023-05-23T06:48:16;4.47;;;2.88;;
63089;SDS011;49174;43.198;27.824;2023-05-23T06:50:41;4.03;;;2.40;;
63089;SDS011;49174;43.198;27.824;2023-05-23T06:53:07;7.25;;;2.50;;
63089;SDS011;49174;43.198;27.824;2023-05-23T06:55:32;5.25;;;2.90;;
63089;SDS011;49174;43.198;27.824;2023-05-23T06:57:58;5.20;;;2.58;;
63089;SDS011;49174;43.198;27.824;2023-05-23T07:00:24;3.08;;;2.72;;
63089;SDS011;49174;43.198;27.824;2023-05-23T07:02:50;4.88;;;2.75;;
63089;SDS011;49174;43.198;27.824;2023-05-23T07:05:16;4.53;;;2.63;;
63089;SDS011;49174;43.198;27.824;2023-05-23T07:07:41;6.07;;;3.28;;
63089;SDS011;49174;43.198;27.824;2023-05-23T07:10:08;4.47;;;2.80;;
63089;SDS011;49174;43.198;27.824;2023-05-23T07:12:34;6.70;;;3.10;;
63089;SDS011;49174;43.198;27.824;2023-05-23T07:15:00;5.63;;;3.13;;
63089;SDS011;49174;43.198;27.824;2023-05-23T07:17:26;5.43;;;2.95;;
63089;SDS011;49174;43.198;27.824;2023-05-23T07:19:54;4.22;;;3.03;;
63089;SDS011;49174;43.198;27.824;2023-05-23T07:22:20;5.60;;;2.85;;
63089;SDS011;49174;43.198;27.824;2023-05-23T07:24:45;12.70;;;3.30;;
63089;SDS011;49174;43.198;27.824;2023-05-23T07:27:11;5.15;;;2.78;;
63089;SDS011;49174;43.198;27.824;2023-05-23T07:29:36;5.47;;;2.83;;
63089;SDS011;49174;43.198;27.824;2023-05-23T07:32:02;6.78;;;3.28;;
63089;SDS011;49174;43.198;27.824;2023-05-23T07:34:27;3.40;;;2.33;;
63089;SDS011;49174;43.198;27.824;2023-05-23T07:36:53;7.22;;;2.80;;
63089;SDS011;49174;43.198;27.824;2023-05-23T07:39:18;4.80;;;3.00;;
63089;SDS011;49174;43.198;27.824;2023-05-23T07:41:49;4.57;;;2.65;;
63089;SDS011;49174;43.198;27.824;2023-05-23T07:44:15;5.28;;;2.72;;
63089;SDS011;49174;43.198;27.824;2023-05-23T07:46:43;4.22;;;3.13;;
63089;SDS011;49174;43.198;27.824;2023-05-23T07:49:08;4.80;;;2.78;;
63089;SDS011;49174;43.198;27.824;2023-05-23T07:51:34;4.47;;;2.65;;
63089;SDS011;49174;43.198;27.824;2023-05-23T07:54:00;3.95;;;2.67;;
63089;SDS011;49174;43.198;27.824;2023-05-23T07:56:26;8.45;;;2.72;;
63089;SDS011;49174;43.198;27.824;2023-05-23T07:58:51;8.55;;;2.95;;
63089;SDS011;49174;43.198;27.824;2023-05-23T08:01:17;10.10;;;3.33;;
63089;SDS011;49174;43.198;27.824;2023-05-23T08:03:43;5.40;;;2.83;;
63089;SDS011;49174;43.198;27.824;2023-05-23T08:06:09;7.65;;;3.22;;
63089;SDS011;49174;43.198;27.824;2023-05-23T08:08:34;3.60;;;2.47;;
63089;SDS011;49174;43.198;27.824;2023-05-23T08:11:00;8.23;;;3.20;;
63089;SDS011;49174;43.198;27.824;2023-05-23T08:13:26;10.40;;;3.60;;
63089;SDS011;49174;43.198;27.824;2023-05-23T08:15:52;6.95;;;3.92;;
63089;SDS011;49174;43.198;27.824;2023-05-23T08:18:18;3.88;;;2.75;;
63089;SDS011;49174;43.198;27.824;2023-05-23T08:20:44;7.03;;;2.95;;
63089;SDS011;49174;43.198;27.824;2023-05-23T08:23:10;5.07;;;3.30;;
63089;SDS011;49174;43.198;27.824;2023-05-23T08:25:36;3.95;;;2.80;;
63089;SDS011;49174;43.198;27.824;2023-05-23T08:28:03;9.18;;;2.97;;
63089;SDS011;49174;43.198;27.824;2023-05-23T08:30:28;4.50;;;2.85;;
63089;SDS011;49174;43.198;27.824;2023-05-23T08:32:55;4.70;;;2.80;;
63089;SDS011;49174;43.198;27.824;2023-05-23T08:35:21;6.55;;;2.53;;
63089;SDS011;49174;43.198;27.824;2023-05-23T08:37:47;4.50;;;2.40;;
63089;SDS011;49174;43.198;27.824;2023-05-23T08:40:19;5.05;;;2.35;;
63089;SDS011;49174;43.198;27.824;2023-05-23T08:42:46;4.45;;;2.67;;
63089;SDS011;49174;43.198;27.824;2023-05-23T08:45:12;5.72;;;2.75;;
63089;SDS011;49174;43.198;27.824;2023-05-23T08:47:40;4.97;;;2.70;;
63089;SDS011;49174;43.198;27.824;2023-05-23T08:50:07;5.80;;;4.28;;
63089;SDS011;49174;43.198;27.824;2023-05-23T08:52:34;12.00;;;6.05;;
63089;SDS011;49174;43.198;27.824;2023-05-23T08:55:07;22.02;;;3.67;;
63089;SDS011;49174;43.198;27.824;2023-05-23T08:57:34;23.33;;;5.10;;
63089;SDS011;49174;43.198;27.824;2023-05-23T09:00:01;47.95;;;6.75;;
63089;SDS011;49174;43.198;27.824;2023-05-23T09:02:33;7.13;;;3.25;;
63089;SDS011;49174;43.198;27.824;2023-05-23T09:04:58;4.95;;;3.22;;
63089;SDS011;49174;43.198;27.824;2023-05-23T09:07:24;4.10;;;2.83;;
63089;SDS011;49174;43.198;27.824;2023-05-23T09:09:50;6.10;;;4.05;;
63089;SDS011;49174;43.198;27.824;2023-05-23T09:12:15;6.38;;;4.65;;
63089;SDS011;49174;43.198;27.824;2023-05-23T09:14:41;6.38;;;3.00;;
63089;SDS011;49174;43.198;27.824;2023-05-23T09:17:10;4.45;;;2.88;;
63089;SDS011;49174;43.198;27.824;2023-05-23T09:19:40;6.88;;;2.70;;
63089;SDS011;49174;43.198;27.824;2023-05-23T09:22:07;4.88;;;3.10;;
63089;SDS011;49174;43.198;27.824;2023-05-23T09:24:33;4.57;;;2.90;;
63089;SDS011;49174;43.198;27.824;2023-05-23T09:27:00;4.88;;;3.00;;
63089;SDS011;49174;43.198;27.824;2023-05-23T09:29:26;5.25;;;3.05;;
63089;SDS011;49174;43.198;27.824;2023-05-23T09:31:52;4.95;;;2.88;;
63089;SDS011;49174;43.198;27.824;2023-05-23T09:34:24;7.80;;;3.13;;
63089;SDS011;49174;43.198;27.824;2023-05-23T09:36:50;4.30;;;2.90;;
63089;SDS011;49174;43.198;27.824;2023-05-23T09:39:19;4.45;;;3.10;;
63089;SDS011;49174;43.198;27.824;2023-05-23T09:41:47;8.45;;;3.72;;
63089;SDS011;49174;43.198;27.824;2023-05-23T09:44:13;6.07;;;2.85;;
63089;SDS011;49174;43.198;27.824;2023-05-23T09:46:38;6.35;;;2.97;;
63089;SDS011;49174;43.198;27.824;2023-05-23T09:49:13;7.03;;;3.08;;
63089;SDS011;49174;43.198;27.824;2023-05-23T09:51:55;6.50;;;3.08;;
63089;SDS011;49174;43.198;27.824;2023-05-23T09:54:22;5.60;;;3.60;;
63089;SDS011;49174;43.198;27.824;2023-05-23T09:56:47;4.82;;;2.97;;
63089;SDS011;49174;43.198;27.824;2023-05-23T09:59:16;5.28;;;3.42;;
63089;SDS011;49174;43.198;27.824;2023-05-23T10:01:48;5.30;;;3.17;;
63089;SDS011;49174;43.198;27.824;2023-05-23T10:04:18;5.22;;;3.25;;
63089;SDS011;49174;43.198;27.824;2023-05-23T10:06:51;5.70;;;3.20;;
63089;SDS011;49174;43.198;27.824;2023-05-23T10:09:21;4.50;;;3.30;;
63089;SDS011;49174;43.198;27.824;2023-05-23T10:14:39;5.68;;;3.42;;
63089;SDS011;49174;43.198;27.824;2023-05-23T10:17:19;4.80;;;3.20;;
63089;SDS011;49174;43.198;27.824;2023-05-23T10:19:57;5.68;;;3.25;;
63089;SDS011;49174;43.198;27.824;2023-05-23T10:22:29;7.70;;;3.90;;
63089;SDS011;49174;43.198;27.824;2023-05-23T10:24:56;5.05;;;3.30;;
63089;SDS011;49174;43.198;27.824;2023-05-23T10:27:22;5.00;;;3.28;;
63089;SDS011;49174;43.198;27.824;2023-05-23T10:29:48;5.65;;;3.85;;
63089;SDS011;49174;43.198;27.824;2023-05-23T10:32:13;8.23;;;4.30;;
63089;SDS011;49174;43.198;27.824;2023-05-23T10:34:43;9.85;;;3.92;;
63089;SDS011;49174;43.198;27.824;2023-05-23T10:37:21;7.45;;;4.32;;
63089;SDS011;49174;43.198;27.824;2023-05-23T10:39:56;9.15;;;4.35;;
63089;SDS011;49174;43.198;27.824;2023-05-23T10:47:40;8.15;;;4.78;;
63089;SDS011;49174;43.198;27.824;2023-05-23T10:50:06;8.23;;;4.53;;
63089;SDS011;49174;43.198;27.824;2023-05-23T10:52:37;9.73;;;5.28;;
63089;SDS011;49174;43.198;27.824;2023-05-23T10:55:11;7.63;;;4.60;;
63089;SDS011;49174;43.198;27.824;2023-05-23T10:58:16;8.63;;;5.18;;
63089;SDS011;49174;43.198;27.824;2023-05-23T11:06:29;13.27;;;5.75;;
63089;SDS011;49174;43.198;27.824;2023-05-23T11:11:50;9.85;;;5.18;;
63089;SDS011;49174;43.198;27.824;2023-05-23T11:14:17;12.68;;;5.75;;
63089;SDS011;49174;43.198;27.824;2023-05-23T11:16:44;7.82;;;5.93;;
63089;SDS011;49174;43.198;27.824;2023-05-23T11:21:48;9.57;;;6.30;;
63089;SDS011;49174;43.198;27.824;2023-05-23T11:24:15;10.32;;;6.75;;
63089;SDS011;49174;43.198;27.824;2023-05-23T11:27:02;10.23;;;6.80;;
63089;SDS011;49174;43.198;27.824;2023-05-23T11:29:28;14.77;;;7.68;;
63089;SDS011;49174;43.198;27.824;2023-05-23T11:31:55;15.45;;;6.78;;
63089;SDS011;49174;43.198;27.824;2023-05-23T11:34:21;11.98;;;7.40;;
63089;SDS011;49174;43.198;27.824;2023-05-23T11:36:53;13.70;;;8.77;;
63089;SDS011;49174;43.198;27.824;2023-05-23T11:39:19;13.05;;;8.02;;
63089;SDS011;49174;43.198;27.824;2023-05-23T11:41:49;13.23;;;7.38;;
63089;SDS011;49174;43.198;27.824;2023-05-23T11:44:23;12.02;;;7.10;;
63089;SDS011;49174;43.198;27.824;2023-05-23T11:49:44;10.35;;;6.97;;
63089;SDS011;49174;43.198;27.824;2023-05-23T11:52:11;11.13;;;6.78;;
63089;SDS011;49174;43.198;27.824;2023-05-23T11:54:39;10.02;;;8.48;;
63089;SDS011;49174;43.198;27.824;2023-05-23T11:57:08;12.30;;;8.35;;
63089;SDS011;49174;43.198;27.824;2023-05-23T11:59:38;15.77;;;9.20;;
63089;SDS011;49174;43.198;27.824;2023-05-23T12:02:05;12.60;;;9.13;;
63089;SDS011;49174;43.198;27.824;2023-05-23T12:04:36;11.27;;;8.60;;
63089;SDS011;49174;43.198;27.824;2023-05-23T12:07:03;12.13;;;8.52;;
63089;SDS011;49174;43.198;27.824;2023-05-23T12:09:29;12.93;;;8.43;;
63089;SDS011;49174;43.198;27.824;2023-05-23T12:11:54;11.00;;;8.05;;
63089;SDS011;49174;43.198;27.824;2023-05-23T12:14:20;9.07;;;6.95;;
63089;SDS011;49174;43.198;27.824;2023-05-23T12:16:46;11.25;;;7.45;;
63089;SDS011;49174;43.198;27.824;2023-05-23T12:19:12;9.85;;;7.40;;
63089;SDS011;49174;43.198;27.824;2023-05-23T12:21:45;11.63;;;8.63;;
63089;SDS011;49174;43.198;27.824;2023-05-23T12:27:11;8.98;;;7.13;;
63089;SDS011;49174;43.198;27.824;2023-05-23T12:29:31;8.45;;;6.40;;
63089;SDS011;49174;43.198;27.824;2023-05-23T12:31:57;8.90;;;6.20;;
63089;SDS011;49174;43.198;27.824;2023-05-23T12:34:24;8.00;;;5.20;;
63089;SDS011;49174;43.198;27.824;2023-05-23T12:36:53;10.10;;;5.50;;
63089;SDS011;49174;43.198;27.824;2023-05-23T12:39:26;8.70;;;4.90;;
63089;SDS011;49174;43.198;27.824;2023-05-23T12:41:52;9.38;;;6.13;;
63089;SDS011;49174;43.198;27.824;2023-05-23T12:44:31;7.63;;;5.30;;
63089;SDS011;49174;43.198;27.824;2023-05-23T12:46:57;9.63;;;5.30;;
63089;SDS011;49174;43.198;27.824;2023-05-23T12:49:23;9.07;;;5.30;;
63089;SDS011;49174;43.198;27.824;2023-05-23T12:51:48;8.38;;;5.18;;
63089;SDS011;49174;43.198;27.824;2023-05-23T12:54:14;8.77;;;5.22;;
63089;SDS011;49174;43.198;27.824;2023-05-23T12:56:40;6.72;;;4.60;;
63089;SDS011;49174;43.198;27.824;2023-05-23T12:59:05;8.02;;;5.60;;
63089;SDS011;49174;43.198;27.824;2023-05-23T13:01:32;8.75;;;5.13;;
63089;SDS011;49174;43.198;27.824;2023-05-23T13:03:59;6.15;;;5.00;;
63089;SDS011;49174;43.198;27.824;2023-05-23T13:06:25;6.20;;;4.82;;
63089;SDS011;49174;43.198;27.824;2023-05-23T13:08:51;10.60;;;5.70;;
63089;SDS011;49174;43.198;27.824;2023-05-23T13:11:18;9.05;;;5.57;;
63089;SDS011;49174;43.198;27.824;2023-05-23T13:13:47;6.68;;;4.93;;
63089;SDS011;49174;43.198;27.824;2023-05-23T13:16:14;6.45;;;5.07;;
63089;SDS011;49174;43.198;27.824;2023-05-23T13:18:40;13.10;;;5.43;;
63089;SDS011;49174;43.198;27.824;2023-05-23T13:21:06;8.95;;;5.28;;
63089;SDS011;49174;43.198;27.824;2023-05-23T13:23:32;8.45;;;5.13;;
63089;SDS011;49174;43.198;27.824;2023-05-23T13:25:58;7.22;;;5.38;;
63089;SDS011;49174;43.198;27.824;2023-05-23T13:28:23;7.72;;;5.25;;
63089;SDS011;49174;43.198;27.824;2023-05-23T13:30:49;7.60;;;4.88;;
63089;SDS011;49174;43.198;27.824;2023-05-23T13:33:15;10.25;;;5.55;;
63089;SDS011;49174;43.198;27.824;2023-05-23T13:35:41;6.82;;;3.85;;
63089;SDS011;49174;43.198;27.824;2023-05-23T13:38:07;6.05;;;4.45;;
63089;SDS011;49174;43.198;27.824;2023-05-23T13:40:32;9.10;;;4.53;;
63089;SDS011;49174;43.198;27.824;2023-05-23T13:42:58;6.78;;;4.68;;
63089;SDS011;49174;43.198;27.824;2023-05-23T13:45:24;7.20;;;5.22;;
63089;SDS011;49174;43.198;27.824;2023-05-23T13:47:49;10.75;;;4.35;;
63089;SDS011;49174;43.198;27.824;2023-05-23T13:50:15;8.65;;;4.70;;
63089;SDS011;49174;43.198;27.824;2023-05-23T13:52:41;6.57;;;4.47;;
63089;SDS011;49174;43.198;27.824;2023-05-23T13:55:07;8.38;;;5.15;;
63089;SDS011;49174;43.198;27.824;2023-05-23T13:57:33;6.18;;;5.35;;
63089;SDS011;49174;43.198;27.824;2023-05-23T13:59:59;5.90;;;4.10;;
63089;SDS011;49174;43.198;27.824;2023-05-23T14:02:24;8.73;;;4.88;;
63089;SDS011;49174;43.198;27.824;2023-05-23T14:04:51;8.50;;;4.47;;
63089;SDS011;49174;43.198;27.824;2023-05-23T14:07:17;5.88;;;4.43;;
63089;SDS011;49174;43.198;27.824;2023-05-23T14:09:42;6.93;;;4.40;;
63089;SDS011;49174;43.198;27.824;2023-05-23T14:12:08;6.95;;;3.92;;
63089;SDS011;49174;43.198;27.824;2023-05-23T14:14:34;7.45;;;4.32;;
63089;SDS011;49174;43.198;27.824;2023-05-23T14:16:59;6.70;;;4.10;;
63089;SDS011;49174;43.198;27.824;2023-05-23T14:19:25;6.05;;;3.92;;
63089;SDS011;49174;43.198;27.824;2023-05-23T14:21:50;5.38;;;4.47;;
63089;SDS011;49174;43.198;27.824;2023-05-23T14:24:16;5.18;;;3.78;;
63089;SDS011;49174;43.198;27.824;2023-05-23T14:26:41;5.55;;;4.60;;
63089;SDS011;49174;43.198;27.824;2023-05-23T14:29:07;5.63;;;3.97;;
63089;SDS011;49174;43.198;27.824;2023-05-23T14:31:32;6.43;;;3.95;;
63089;SDS011;49174;43.198;27.824;2023-05-23T14:33:58;6.70;;;4.38;;
63089;SDS011;49174;43.198;27.824;2023-05-23T14:36:24;4.95;;;3.60;;
63089;SDS011;49174;43.198;27.824;2023-05-23T14:38:50;8.18;;;4.65;;
63089;SDS011;49174;43.198;27.824;2023-05-23T14:41:16;6.78;;;3.90;;
63089;SDS011;49174;43.198;27.824;2023-05-23T14:43:42;6.28;;;3.95;;
63089;SDS011;49174;43.198;27.824;2023-05-23T14:46:08;7.28;;;4.47;;
63089;SDS011;49174;43.198;27.824;2023-05-23T14:48:34;10.27;;;4.20;;
63089;SDS011;49174;43.198;27.824;2023-05-23T14:51:00;5.45;;;3.90;;
63089;SDS011;49174;43.198;27.824;2023-05-23T14:53:26;7.57;;;4.10;;
63089;SDS011;49174;43.198;27.824;2023-05-23T14:55:52;5.82;;;4.32;;
63089;SDS011;49174;43.198;27.824;2023-05-23T14:58:18;6.60;;;4.10;;
63089;SDS011;49174;43.198;27.824;2023-05-23T15:00:45;12.48;;;6.13;;
63089;SDS011;49174;43.198;27.824;2023-05-23T15:03:12;6.28;;;4.00;;
63089;SDS011;49174;43.198;27.824;2023-05-23T15:05:38;6.53;;;3.88;;